sensor_id;sensor_type;location;lat;lon;timestamp;pressure;altitude;pressure_sealevel;temperature;humidity
9343;BME280;4710;51.382;7.244;2022-08-19T00:01:56;99182.65;;;33.25;42.68
9343;BME280;4710;51.382;7.244;2022-08-19T00:04:36;99189.73;;;33.63;42.00
9343;BME280;4710;51.382;7.244;2022-08-19T00:07:19;99190.74;;;34.02;41.59
9343;BME280;4710;51.382;7.244;2022-08-19T00:09:57;99191.05;;;34.03;41.46
9343;BME280;4710;51.382;7.244;2022-08-19T00:12:34;99192.03;;;33.96;41.51
9343;BME280;4710;51.382;7.244;2022-08-19T00:15:17;99187.23;;;34.16;41.24
9343;BME280;4710;51.382;7.244;2022-08-19T00:17:56;99193.89;;;34.10;40.79
9343;BME280;4710;51.382;7.244;2022-08-19T00:20:33;99188.39;;;33.41;42.21
9343;BME280;4710;51.382;7.244;2022-08-19T00:23:14;99191.14;;;33.14;43.02
9343;BME280;4710;51.382;7.244;2022-08-19T00:25:58;99197.35;;;32.97;43.16
9343;BME280;4710;51.382;7.244;2022-08-19T00:28:35;99198.19;;;32.17;44.93
9343;BME280;4710;51.382;7.244;2022-08-19T00:31:17;99194.72;;;32.38;45.33
9343;BME280;4710;51.382;7.244;2022-08-19T00:33:54;99196.88;;;32.24;45.55
9343;BME280;4710;51.382;7.244;2022-08-19T00:36:33;99190.88;;;33.52;42.89
9343;BME280;4710;51.382;7.244;2022-08-19T00:39:11;99193.13;;;32.55;44.40
9343;BME280;4710;51.382;7.244;2022-08-19T00:41:52;99191.81;;;32.34;45.11
9343;BME280;4710;51.382;7.244;2022-08-19T00:44:29;99191.27;;;31.78;47.10
9343;BME280;4710;51.382;7.244;2022-08-19T00:47:10;99190.34;;;32.14;46.71
9343;BME280;4710;51.382;7.244;2022-08-19T00:49:51;99190.80;;;31.91;46.25
9343;BME280;4710;51.382;7.244;2022-08-19T00:52:32;99188.39;;;32.96;43.99
9343;BME280;4710;51.382;7.244;2022-08-19T00:55:13;99184.80;;;32.07;45.89
9343;BME280;4710;51.382;7.244;2022-08-19T00:57:55;99188.24;;;32.03;46.82
9343;BME280;4710;51.382;7.244;2022-08-19T01:00:35;99184.24;;;31.74;46.97
9343;BME280;4710;51.382;7.244;2022-08-19T01:03:17;99173.38;;;32.27;46.46
9343;BME280;4710;51.382;7.244;2022-08-19T01:05:56;99173.66;;;32.81;44.70
9343;BME280;4710;51.382;7.244;2022-08-19T01:08:34;99184.81;;;33.06;44.15
9343;BME280;4710;51.382;7.244;2022-08-19T01:11:12;99180.82;;;33.17;43.90
9343;BME280;4710;51.382;7.244;2022-08-19T01:13:53;99190.73;;;33.43;43.17
9343;BME280;4710;51.382;7.244;2022-08-19T01:16:31;99187.14;;;32.98;43.77
9343;BME280;4710;51.382;7.244;2022-08-19T01:19:24;99182.77;;;33.02;44.28
9343;BME280;4710;51.382;7.244;2022-08-19T01:22:08;99194.58;;;32.32;45.66
9343;BME280;4710;51.382;7.244;2022-08-19T01:24:49;99179.50;;;32.16;45.96
9343;BME280;4710;51.382;7.244;2022-08-19T01:27:37;99191.47;;;31.49;47.78
9343;BME280;4710;51.382;7.244;2022-08-19T01:30:22;99181.66;;;32.09;46.88
9343;BME280;4710;51.382;7.244;2022-08-19T01:33:02;99181.76;;;32.75;45.51
9343;BME280;4710;51.382;7.244;2022-08-19T01:35:44;99171.58;;;32.73;44.72
9343;BME280;4710;51.382;7.244;2022-08-19T01:38:23;99171.39;;;32.61;45.02
9343;BME280;4710;51.382;7.244;2022-08-19T01:41:04;99166.34;;;32.23;45.85
9343;BME280;4710;51.382;7.244;2022-08-19T01:43:44;99167.60;;;32.31;45.61
9343;BME280;4710;51.382;7.244;2022-08-19T01:46:30;99161.73;;;32.48;45.85
9343;BME280;4710;51.382;7.244;2022-08-19T01:49:11;99171.25;;;31.88;47.18
9343;BME280;4710;51.382;7.244;2022-08-19T01:51:48;99176.91;;;31.28;48.14
9343;BME280;4710;51.382;7.244;2022-08-19T01:54:26;99173.77;;;31.69;48.02
9343;BME280;4710;51.382;7.244;2022-08-19T01:57:08;99178.63;;;30.73;50.67
9343;BME280;4710;51.382;7.244;2022-08-19T01:59:49;99175.23;;;30.53;51.79
9343;BME280;4710;51.382;7.244;2022-08-19T02:02:30;99170.84;;;30.65;52.05
9343;BME280;4710;51.382;7.244;2022-08-19T02:05:11;99170.73;;;31.26;49.94
9343;BME280;4710;51.382;7.244;2022-08-19T02:07:55;99166.05;;;30.56;52.14
9343;BME280;4710;51.382;7.244;2022-08-19T02:10:42;99157.70;;;31.66;49.29
9343;BME280;4710;51.382;7.244;2022-08-19T02:13:22;99155.59;;;31.88;48.15
9343;BME280;4710;51.382;7.244;2022-08-19T02:16:03;99149.57;;;32.83;46.13
9343;BME280;4710;51.382;7.244;2022-08-19T02:18:40;99146.52;;;33.19;44.96
9343;BME280;4710;51.382;7.244;2022-08-19T02:21:23;99151.61;;;33.44;44.70
9343;BME280;4710;51.382;7.244;2022-08-19T02:24:02;99157.95;;;33.49;43.89
9343;BME280;4710;51.382;7.244;2022-08-19T02:26:43;99161.39;;;33.48;43.71
9343;BME280;4710;51.382;7.244;2022-08-19T02:29:22;99170.09;;;33.31;44.22
9343;BME280;4710;51.382;7.244;2022-08-19T02:32:00;99171.45;;;33.36;44.39
9343;BME280;4710;51.382;7.244;2022-08-19T02:34:37;99164.44;;;33.02;44.43
9343;BME280;4710;51.382;7.244;2022-08-19T02:37:16;99169.45;;;32.54;45.33
9343;BME280;4710;51.382;7.244;2022-08-19T02:40:00;99167.68;;;31.64;47.71
9343;BME280;4710;51.382;7.244;2022-08-19T02:42:40;99170.64;;;31.55;49.86
9343;BME280;4710;51.382;7.244;2022-08-19T02:45:22;99163.16;;;31.43;50.05
9343;BME280;4710;51.382;7.244;2022-08-19T02:48:04;99167.81;;;31.43;49.94
9343;BME280;4710;51.382;7.244;2022-08-19T02:50:45;99170.47;;;31.51;50.01
9343;BME280;4710;51.382;7.244;2022-08-19T02:53:26;99167.85;;;31.92;48.83
9343;BME280;4710;51.382;7.244;2022-08-19T02:56:07;99169.81;;;32.01;48.89
9343;BME280;4710;51.382;7.244;2022-08-19T02:58:44;99166.00;;;32.10;48.20
9343;BME280;4710;51.382;7.244;2022-08-19T03:01:30;99171.44;;;30.56;52.20
9343;BME280;4710;51.382;7.244;2022-08-19T03:04:13;99173.80;;;30.59;52.30
9343;BME280;4710;51.382;7.244;2022-08-19T03:06:59;99176.78;;;30.57;52.44
9343;BME280;4710;51.382;7.244;2022-08-19T03:09:39;99174.55;;;30.28;55.36
9343;BME280;4710;51.382;7.244;2022-08-19T03:12:21;99178.63;;;30.25;55.28
9343;BME280;4710;51.382;7.244;2022-08-19T03:15:02;99181.03;;;29.43;58.38
9343;BME280;4710;51.382;7.244;2022-08-19T03:17:40;99174.86;;;29.59;58.41
9343;BME280;4710;51.382;7.244;2022-08-19T03:20:17;99163.00;;;30.63;55.50
9343;BME280;4710;51.382;7.244;2022-08-19T03:22:56;99163.20;;;31.74;51.80
9343;BME280;4710;51.382;7.244;2022-08-19T03:25:38;99165.45;;;31.77;50.42
9343;BME280;4710;51.382;7.244;2022-08-19T03:28:18;99168.56;;;32.74;48.20
9343;BME280;4710;51.382;7.244;2022-08-19T03:31:02;99156.85;;;33.05;46.53
9343;BME280;4710;51.382;7.244;2022-08-19T03:33:40;99157.96;;;32.21;47.08
9343;BME280;4710;51.382;7.244;2022-08-19T03:36:24;99159.46;;;31.67;47.85
9343;BME280;4710;51.382;7.244;2022-08-19T03:39:03;99165.27;;;31.31;50.42
9343;BME280;4710;51.382;7.244;2022-08-19T03:41:42;99173.67;;;31.17;51.07
9343;BME280;4710;51.382;7.244;2022-08-19T03:44:23;99169.98;;;32.43;47.38
9343;BME280;4710;51.382;7.244;2022-08-19T03:47:02;99169.24;;;32.90;45.90
9343;BME280;4710;51.382;7.244;2022-08-19T03:49:39;99168.02;;;33.12;45.34
9343;BME280;4710;51.382;7.244;2022-08-19T03:52:22;99166.65;;;33.42;44.53
9343;BME280;4710;51.382;7.244;2022-08-19T03:57:21;99170.70;;;32.57;45.64
9343;BME280;4710;51.382;7.244;2022-08-19T03:59:58;99178.30;;;31.69;48.06
9343;BME280;4710;51.382;7.244;2022-08-19T04:02:41;99182.96;;;30.45;52.38
9343;BME280;4710;51.382;7.244;2022-08-19T04:05:22;99187.39;;;30.73;51.07
9343;BME280;4710;51.382;7.244;2022-08-19T04:08:00;99174.99;;;30.57;52.37
9343;BME280;4710;51.382;7.244;2022-08-19T04:10:39;99179.42;;;31.34;51.37
9343;BME280;4710;51.382;7.244;2022-08-19T04:13:20;99174.41;;;32.14;48.39
9343;BME280;4710;51.382;7.244;2022-08-19T04:15:58;99179.99;;;32.29;47.36
9343;BME280;4710;51.382;7.244;2022-08-19T04:18:40;99176.53;;;32.30;46.86
9343;BME280;4710;51.382;7.244;2022-08-19T04:21:23;99184.75;;;32.18;47.41
9343;BME280;4710;51.382;7.244;2022-08-19T04:24:03;99181.22;;;32.25;46.72
9343;BME280;4710;51.382;7.244;2022-08-19T04:26:42;99178.91;;;32.09;47.52
9343;BME280;4710;51.382;7.244;2022-08-19T04:29:24;99184.36;;;31.71;48.55
9343;BME280;4710;51.382;7.244;2022-08-19T04:32:05;99191.37;;;31.00;51.41
9343;BME280;4710;51.382;7.244;2022-08-19T04:34:42;99194.13;;;31.54;51.00
9343;BME280;4710;51.382;7.244;2022-08-19T04:37:19;99197.42;;;31.02;52.82
9343;BME280;4710;51.382;7.244;2022-08-19T04:40:00;99192.06;;;30.72;54.68
9343;BME280;4710;51.382;7.244;2022-08-19T04:42:44;99194.95;;;31.34;53.51
9343;BME280;4710;51.382;7.244;2022-08-19T04:45:25;99196.06;;;31.98;51.18
9343;BME280;4710;51.382;7.244;2022-08-19T04:48:02;99203.28;;;32.44;49.07
9343;BME280;4710;51.382;7.244;2022-08-19T04:51:51;99203.03;;;32.61;47.52
9343;BME280;4710;51.382;7.244;2022-08-19T04:54:32;99206.80;;;32.07;48.22
9343;BME280;4710;51.382;7.244;2022-08-19T04:57:14;99209.03;;;31.79;49.52
9343;BME280;4710;51.382;7.244;2022-08-19T04:59:54;99217.03;;;31.02;51.96
9343;BME280;4710;51.382;7.244;2022-08-19T05:02:36;99215.61;;;30.81;53.26
9343;BME280;4710;51.382;7.244;2022-08-19T05:05:16;99217.95;;;30.68;54.79
9343;BME280;4710;51.382;7.244;2022-08-19T05:07:54;99215.97;;;30.42;55.74
9343;BME280;4710;51.382;7.244;2022-08-19T05:10:40;99225.58;;;30.42;57.27
9343;BME280;4710;51.382;7.244;2022-08-19T05:13:24;99223.66;;;30.77;55.07
9343;BME280;4710;51.382;7.244;2022-08-19T05:16:05;99228.61;;;31.04;54.91
9343;BME280;4710;51.382;7.244;2022-08-19T05:18:47;99230.63;;;30.74;55.28
9343;BME280;4710;51.382;7.244;2022-08-19T05:21:31;99229.52;;;31.12;54.31
9343;BME280;4710;51.382;7.244;2022-08-19T05:24:14;99222.17;;;30.67;56.62
9343;BME280;4710;51.382;7.244;2022-08-19T05:26:53;99227.33;;;31.14;55.37
9343;BME280;4710;51.382;7.244;2022-08-19T05:29:34;99222.62;;;30.96;55.40
9343;BME280;4710;51.382;7.244;2022-08-19T05:33:39;99212.00;;;31.96;52.04
9343;BME280;4710;51.382;7.244;2022-08-19T05:36:17;99214.34;;;31.98;51.05
9343;BME280;4710;51.382;7.244;2022-08-19T05:39:02;99215.48;;;32.28;50.59
9343;BME280;4710;51.382;7.244;2022-08-19T05:41:50;99222.84;;;31.53;54.20
9343;BME280;4710;51.382;7.244;2022-08-19T05:44:30;99224.52;;;31.09;55.38
9343;BME280;4710;51.382;7.244;2022-08-19T05:47:09;99218.67;;;30.85;57.16
9343;BME280;4710;51.382;7.244;2022-08-19T05:49:47;99224.97;;;30.85;57.26
9343;BME280;4710;51.382;7.244;2022-08-19T05:52:28;99221.48;;;30.79;57.43
9343;BME280;4710;51.382;7.244;2022-08-19T05:55:15;99227.66;;;30.67;58.73
9343;BME280;4710;51.382;7.244;2022-08-19T05:57:53;99224.65;;;30.79;57.75
9343;BME280;4710;51.382;7.244;2022-08-19T06:00:31;99224.73;;;31.16;55.41
9343;BME280;4710;51.382;7.244;2022-08-19T06:03:10;99229.30;;;31.19;56.76
9343;BME280;4710;51.382;7.244;2022-08-19T06:05:53;99228.53;;;31.44;56.23
9343;BME280;4710;51.382;7.244;2022-08-19T06:08:41;99228.08;;;31.07;56.35
9343;BME280;4710;51.382;7.244;2022-08-19T06:11:25;99227.73;;;31.85;53.86
9343;BME280;4710;51.382;7.244;2022-08-19T06:14:11;99226.68;;;31.34;55.60
9343;BME280;4710;51.382;7.244;2022-08-19T06:16:51;99231.59;;;31.16;56.36
9343;BME280;4710;51.382;7.244;2022-08-19T06:19:29;99224.87;;;31.13;56.92
9343;BME280;4710;51.382;7.244;2022-08-19T06:22:06;99223.77;;;30.50;59.43
9343;BME280;4710;51.382;7.244;2022-08-19T06:24:53;99224.27;;;30.82;59.26
9343;BME280;4710;51.382;7.244;2022-08-19T06:27:40;99228.83;;;30.50;59.99
9343;BME280;4710;51.382;7.244;2022-08-19T06:30:22;99223.18;;;30.59;59.17
9343;BME280;4710;51.382;7.244;2022-08-19T06:33:03;99226.52;;;30.90;58.90
9343;BME280;4710;51.382;7.244;2022-08-19T06:35:41;99214.55;;;30.50;60.76
9343;BME280;4710;51.382;7.244;2022-08-19T06:38:22;99217.19;;;29.87;62.25
9343;BME280;4710;51.382;7.244;2022-08-19T06:41:01;99217.52;;;30.57;61.79
9343;BME280;4710;51.382;7.244;2022-08-19T06:43:37;99227.23;;;30.32;62.14
9343;BME280;4710;51.382;7.244;2022-08-19T06:46:15;99232.42;;;30.74;60.71
9343;BME280;4710;51.382;7.244;2022-08-19T06:48:59;99232.16;;;30.89;60.12
9343;BME280;4710;51.382;7.244;2022-08-19T06:51:37;99227.41;;;30.69;60.16
9343;BME280;4710;51.382;7.244;2022-08-19T06:54:18;99227.31;;;30.72;60.71
9343;BME280;4710;51.382;7.244;2022-08-19T06:56:59;99226.91;;;31.11;59.22
9343;BME280;4710;51.382;7.244;2022-08-19T06:59:40;99231.28;;;30.49;61.76
9343;BME280;4710;51.382;7.244;2022-08-19T07:02:18;99228.65;;;30.69;60.87
9343;BME280;4710;51.382;7.244;2022-08-19T07:05:04;99226.88;;;30.82;59.34
9343;BME280;4710;51.382;7.244;2022-08-19T07:07:45;99233.32;;;30.47;61.79
9343;BME280;4710;51.382;7.244;2022-08-19T07:10:23;99235.50;;;31.09;60.24
9343;BME280;4710;51.382;7.244;2022-08-19T07:13:05;99234.08;;;31.31;59.04
9343;BME280;4710;51.382;7.244;2022-08-19T07:15:46;99235.57;;;31.01;60.09
9343;BME280;4710;51.382;7.244;2022-08-19T07:18:28;99236.59;;;31.19;59.00
9343;BME280;4710;51.382;7.244;2022-08-19T07:21:13;99243.31;;;30.34;62.64
9343;BME280;4710;51.382;7.244;2022-08-19T07:23:55;99247.39;;;31.30;59.47
9343;BME280;4710;51.382;7.244;2022-08-19T07:26:40;99248.48;;;31.32;59.23
9343;BME280;4710;51.382;7.244;2022-08-19T07:29:23;99242.41;;;30.72;61.86
9343;BME280;4710;51.382;7.244;2022-08-19T07:32:04;99253.43;;;30.77;62.73
9343;BME280;4710;51.382;7.244;2022-08-19T07:34:48;99262.33;;;31.76;57.96
9343;BME280;4710;51.382;7.244;2022-08-19T07:37:27;99264.17;;;31.49;58.36
9343;BME280;4710;51.382;7.244;2022-08-19T07:40:12;99267.31;;;31.47;58.86
9343;BME280;4710;51.382;7.244;2022-08-19T07:42:55;99267.37;;;31.57;58.11
9343;BME280;4710;51.382;7.244;2022-08-19T07:45:38;99275.95;;;31.79;58.73
9343;BME280;4710;51.382;7.244;2022-08-19T07:48:16;99272.25;;;31.79;58.10
9343;BME280;4710;51.382;7.244;2022-08-19T07:50:55;99281.80;;;31.38;58.42
9343;BME280;4710;51.382;7.244;2022-08-19T07:53:40;99281.17;;;31.78;56.89
9343;BME280;4710;51.382;7.244;2022-08-19T07:56:21;99279.68;;;32.07;57.30
9343;BME280;4710;51.382;7.244;2022-08-19T07:58:59;99278.72;;;31.50;59.54
9343;BME280;4710;51.382;7.244;2022-08-19T08:01:45;99295.52;;;30.85;60.95
9343;BME280;4710;51.382;7.244;2022-08-19T08:04:33;99293.48;;;30.86;62.91
9343;BME280;4710;51.382;7.244;2022-08-19T08:07:15;99297.94;;;31.79;59.29
9343;BME280;4710;51.382;7.244;2022-08-19T08:09:59;99303.87;;;32.82;54.17
9343;BME280;4710;51.382;7.244;2022-08-19T08:12:39;99297.12;;;32.71;53.38
9343;BME280;4710;51.382;7.244;2022-08-19T08:15:20;99295.09;;;33.00;52.83
9343;BME280;4710;51.382;7.244;2022-08-19T08:18:04;99304.81;;;32.46;53.51
9343;BME280;4710;51.382;7.244;2022-08-19T08:20:46;99307.73;;;32.53;53.79
9343;BME280;4710;51.382;7.244;2022-08-19T08:23:24;99311.84;;;32.71;52.82
9343;BME280;4710;51.382;7.244;2022-08-19T08:26:03;99313.27;;;32.86;52.65
9343;BME280;4710;51.382;7.244;2022-08-19T08:28:44;99312.91;;;33.08;52.86
9343;BME280;4710;51.382;7.244;2022-08-19T08:31:25;99310.34;;;33.42;51.40
9343;BME280;4710;51.382;7.244;2022-08-19T08:34:03;99306.34;;;33.66;51.42
9343;BME280;4710;51.382;7.244;2022-08-19T08:36:45;99308.02;;;33.75;50.72
9343;BME280;4710;51.382;7.244;2022-08-19T08:39:27;99317.43;;;32.39;53.10
9343;BME280;4710;51.382;7.244;2022-08-19T08:45:03;99315.86;;;31.89;59.98
9343;BME280;4710;51.382;7.244;2022-08-19T08:47:42;99307.09;;;33.02;54.80
9343;BME280;4710;51.382;7.244;2022-08-19T08:50:24;99315.48;;;32.33;55.33
9343;BME280;4710;51.382;7.244;2022-08-19T08:53:07;99303.27;;;33.13;53.82
9343;BME280;4710;51.382;7.244;2022-08-19T08:55:53;99293.05;;;33.14;54.35
9343;BME280;4710;51.382;7.244;2022-08-19T08:58:39;99300.33;;;32.94;53.54
9343;BME280;4710;51.382;7.244;2022-08-19T09:01:17;99307.20;;;31.65;53.85
9343;BME280;4710;51.382;7.244;2022-08-19T09:03:57;99303.23;;;31.90;53.88
9343;BME280;4710;51.382;7.244;2022-08-19T09:09:35;99285.88;;;33.00;50.07
9343;BME280;4710;51.382;7.244;2022-08-19T09:12:30;99296.86;;;33.71;48.84
9343;BME280;4710;51.382;7.244;2022-08-19T09:15:29;99301.45;;;33.00;48.39
9343;BME280;4710;51.382;7.244;2022-08-19T09:18:09;99297.42;;;33.78;47.89
9343;BME280;4710;51.382;7.244;2022-08-19T09:20:47;99309.19;;;31.75;51.66
9343;BME280;4710;51.382;7.244;2022-08-19T09:23:24;99306.20;;;32.76;50.17
9343;BME280;4710;51.382;7.244;2022-08-19T09:26:06;99295.88;;;33.36;49.15
9343;BME280;4710;51.382;7.244;2022-08-19T09:28:44;99310.59;;;32.01;51.60
9343;BME280;4710;51.382;7.244;2022-08-19T09:31:26;99311.66;;;32.36;49.48
9343;BME280;4710;51.382;7.244;2022-08-19T09:34:06;99306.47;;;32.73;49.85
9343;BME280;4710;51.382;7.244;2022-08-19T09:36:44;99308.31;;;32.57;49.24
9343;BME280;4710;51.382;7.244;2022-08-19T09:39:33;99296.14;;;34.04;46.73
9343;BME280;4710;51.382;7.244;2022-08-19T09:42:11;99301.61;;;33.12;47.56
9343;BME280;4710;51.382;7.244;2022-08-19T09:44:52;99298.52;;;34.80;45.04
9343;BME280;4710;51.382;7.244;2022-08-19T09:47:32;99295.84;;;35.68;42.72
9343;BME280;4710;51.382;7.244;2022-08-19T09:50:18;99294.02;;;34.28;44.84
9343;BME280;4710;51.382;7.244;2022-08-19T09:52:56;99296.53;;;35.36;42.57
9343;BME280;4710;51.382;7.244;2022-08-19T09:55:41;99295.31;;;34.50;43.66
9343;BME280;4710;51.382;7.244;2022-08-19T09:58:21;99303.86;;;33.35;45.89
9343;BME280;4710;51.382;7.244;2022-08-19T10:01:03;99303.59;;;32.48;49.14
9343;BME280;4710;51.382;7.244;2022-08-19T10:03:48;99313.78;;;32.24;49.42
9343;BME280;4710;51.382;7.244;2022-08-19T10:06:28;99319.12;;;32.20;49.35
9343;BME280;4710;51.382;7.244;2022-08-19T10:09:10;99300.55;;;33.26;46.91
9343;BME280;4710;51.382;7.244;2022-08-19T10:11:50;99300.33;;;34.44;44.06
9343;BME280;4710;51.382;7.244;2022-08-19T10:14:32;99293.72;;;34.71;42.18
9343;BME280;4710;51.382;7.244;2022-08-19T10:17:09;99291.16;;;35.47;41.54
9343;BME280;4710;51.382;7.244;2022-08-19T10:19:57;99298.86;;;34.17;44.12
9343;BME280;4710;51.382;7.244;2022-08-19T10:22:42;99299.08;;;33.71;45.18
9343;BME280;4710;51.382;7.244;2022-08-19T10:25:22;99289.48;;;34.20;44.98
9343;BME280;4710;51.382;7.244;2022-08-19T10:28:12;99291.34;;;33.91;43.56
9343;BME280;4710;51.382;7.244;2022-08-19T10:30:50;99292.12;;;33.11;45.59
9343;BME280;4710;51.382;7.244;2022-08-19T10:33:31;99290.78;;;33.24;45.46
9343;BME280;4710;51.382;7.244;2022-08-19T10:36:13;99300.59;;;34.42;42.80
9343;BME280;4710;51.382;7.244;2022-08-19T10:38:53;99297.41;;;33.83;42.46
9343;BME280;4710;51.382;7.244;2022-08-19T10:41:36;99293.48;;;35.19;40.08
9343;BME280;4710;51.382;7.244;2022-08-19T10:44:16;99291.64;;;35.43;39.54
9343;BME280;4710;51.382;7.244;2022-08-19T10:46:57;99296.83;;;34.84;39.56
9343;BME280;4710;51.382;7.244;2022-08-19T10:49:42;99290.48;;;33.98;40.95
9343;BME280;4710;51.382;7.244;2022-08-19T10:52:26;99291.53;;;34.68;40.79
9343;BME280;4710;51.382;7.244;2022-08-19T10:55:12;99287.80;;;35.39;38.78
9343;BME280;4710;51.382;7.244;2022-08-19T10:57:56;99289.03;;;35.39;38.98
9343;BME280;4710;51.382;7.244;2022-08-19T11:00:38;99284.91;;;35.13;39.24
9343;BME280;4710;51.382;7.244;2022-08-19T11:03:18;99292.05;;;34.41;39.46
9343;BME280;4710;51.382;7.244;2022-08-19T11:06:03;99291.22;;;34.99;38.37
9343;BME280;4710;51.382;7.244;2022-08-19T11:08:49;99289.11;;;35.05;38.29
9343;BME280;4710;51.382;7.244;2022-08-19T11:11:26;99287.00;;;35.36;37.79
9343;BME280;4710;51.382;7.244;2022-08-19T11:14:09;99283.88;;;35.25;37.98
9343;BME280;4710;51.382;7.244;2022-08-19T11:16:55;99285.53;;;35.26;38.14
9343;BME280;4710;51.382;7.244;2022-08-19T11:19:38;99280.05;;;35.24;38.64
9343;BME280;4710;51.382;7.244;2022-08-19T11:22:21;99289.42;;;33.71;40.08
9343;BME280;4710;51.382;7.244;2022-08-19T11:25:05;99276.52;;;33.06;40.74
9343;BME280;4710;51.382;7.244;2022-08-19T11:27:46;99275.95;;;32.51;42.80
9343;BME280;4710;51.382;7.244;2022-08-19T11:30:28;99275.39;;;34.63;39.28
9343;BME280;4710;51.382;7.244;2022-08-19T11:33:05;99274.91;;;34.44;39.50
9343;BME280;4710;51.382;7.244;2022-08-19T11:35:44;99277.34;;;34.09;39.88
9343;BME280;4710;51.382;7.244;2022-08-19T11:38:21;99271.50;;;35.18;37.96
9343;BME280;4710;51.382;7.244;2022-08-19T11:41:03;99272.55;;;35.91;36.76
9343;BME280;4710;51.382;7.244;2022-08-19T11:43:44;99267.17;;;34.46;37.55
9343;BME280;4710;51.382;7.244;2022-08-19T11:46:21;99262.88;;;34.49;37.12
9343;BME280;4710;51.382;7.244;2022-08-19T11:49:02;99268.44;;;33.67;38.24
9343;BME280;4710;51.382;7.244;2022-08-19T11:51:42;99255.84;;;36.62;33.93
9343;BME280;4710;51.382;7.244;2022-08-19T11:54:24;99261.78;;;35.59;35.53
9343;BME280;4710;51.382;7.244;2022-08-19T11:57:04;99256.34;;;36.76;34.32
9343;BME280;4710;51.382;7.244;2022-08-19T11:59:47;99262.02;;;36.94;34.00
9343;BME280;4710;51.382;7.244;2022-08-19T12:02:24;99264.61;;;34.72;37.46
9343;BME280;4710;51.382;7.244;2022-08-19T12:05:03;99255.02;;;36.89;35.04
9343;BME280;4710;51.382;7.244;2022-08-19T12:07:42;99260.28;;;36.91;34.80
9343;BME280;4710;51.382;7.244;2022-08-19T12:10:23;99256.44;;;34.40;36.83
9343;BME280;4710;51.382;7.244;2022-08-19T12:13:04;99252.17;;;35.68;35.75
9343;BME280;4710;51.382;7.244;2022-08-19T12:15:41;99251.24;;;36.41;34.69
9343;BME280;4710;51.382;7.244;2022-08-19T12:18:19;99245.70;;;35.80;35.62
9343;BME280;4710;51.382;7.244;2022-08-19T12:20:57;99250.92;;;35.20;35.23
9343;BME280;4710;51.382;7.244;2022-08-19T12:34:09;99257.66;;;34.43;36.97
9343;BME280;4710;51.382;7.244;2022-08-19T12:36:47;99242.61;;;36.57;34.35
9343;BME280;4710;51.382;7.244;2022-08-19T12:39:28;99245.34;;;36.48;34.87
9343;BME280;4710;51.382;7.244;2022-08-19T12:42:14;99254.23;;;35.95;34.22
9343;BME280;4710;51.382;7.244;2022-08-19T12:44:58;99254.22;;;35.19;33.65
9343;BME280;4710;51.382;7.244;2022-08-19T12:47:36;99256.55;;;36.26;33.33
9343;BME280;4710;51.382;7.244;2022-08-19T12:50:22;99247.86;;;37.16;31.61
9343;BME280;4710;51.382;7.244;2022-08-19T12:53:03;99252.00;;;35.97;32.26
9343;BME280;4710;51.382;7.244;2022-08-19T12:55:54;99239.87;;;37.28;31.31
9343;BME280;4710;51.382;7.244;2022-08-19T12:59:11;99248.77;;;35.45;32.86
9343;BME280;4710;51.382;7.244;2022-08-19T13:01:49;99235.92;;;36.28;32.32
9343;BME280;4710;51.382;7.244;2022-08-19T13:04:28;99241.41;;;36.63;32.24
9343;BME280;4710;51.382;7.244;2022-08-19T13:07:05;99244.78;;;35.87;32.79
9343;BME280;4710;51.382;7.244;2022-08-19T13:09:43;99230.70;;;36.77;32.25
9343;BME280;4710;51.382;7.244;2022-08-19T13:12:24;99231.75;;;36.02;33.03
9343;BME280;4710;51.382;7.244;2022-08-19T13:15:06;99225.45;;;36.94;32.31
9343;BME280;4710;51.382;7.244;2022-08-19T13:17:48;99229.09;;;36.03;32.04
9343;BME280;4710;51.382;7.244;2022-08-19T13:20:29;99220.34;;;37.04;31.72
9343;BME280;4710;51.382;7.244;2022-08-19T13:23:14;99211.20;;;36.22;32.56
9343;BME280;4710;51.382;7.244;2022-08-19T13:25:56;99212.39;;;36.28;32.59
9343;BME280;4710;51.382;7.244;2022-08-19T13:28:35;99209.88;;;34.96;34.42
9343;BME280;4710;51.382;7.244;2022-08-19T13:31:19;99218.31;;;34.97;34.15
9343;BME280;4710;51.382;7.244;2022-08-19T13:34:05;99211.20;;;35.42;34.30
9343;BME280;4710;51.382;7.244;2022-08-19T13:36:47;99210.28;;;35.51;33.96
9343;BME280;4710;51.382;7.244;2022-08-19T13:39:26;99206.33;;;34.66;34.84
9343;BME280;4710;51.382;7.244;2022-08-19T13:42:13;99203.78;;;36.27;33.02
9343;BME280;4710;51.382;7.244;2022-08-19T13:44:52;99209.44;;;35.93;32.33
9343;BME280;4710;51.382;7.244;2022-08-19T13:47:33;99202.70;;;35.90;31.55
9343;BME280;4710;51.382;7.244;2022-08-19T13:50:15;99195.70;;;36.33;31.51
9343;BME280;4710;51.382;7.244;2022-08-19T13:52:58;99194.01;;;36.76;31.10
9343;BME280;4710;51.382;7.244;2022-08-19T13:55:40;99187.94;;;37.34;30.81
9343;BME280;4710;51.382;7.244;2022-08-19T13:58:21;99183.77;;;37.52;30.44
9343;BME280;4710;51.382;7.244;2022-08-19T14:01:05;99176.27;;;37.21;30.16
9343;BME280;4710;51.382;7.244;2022-08-19T14:03:51;99184.02;;;35.66;31.37
9343;BME280;4710;51.382;7.244;2022-08-19T14:06:32;99180.70;;;35.66;31.78
9343;BME280;4710;51.382;7.244;2022-08-19T14:09:11;99176.68;;;36.17;30.60
9343;BME280;4710;51.382;7.244;2022-08-19T14:11:52;99175.63;;;36.82;30.52
9343;BME280;4710;51.382;7.244;2022-08-19T14:14:30;99183.16;;;35.53;31.90
9343;BME280;4710;51.382;7.244;2022-08-19T14:17:12;99194.41;;;35.14;32.57
9343;BME280;4710;51.382;7.244;2022-08-19T14:19:49;99177.95;;;36.01;30.97
9343;BME280;4710;51.382;7.244;2022-08-19T14:22:26;99192.18;;;34.82;32.14
9343;BME280;4710;51.382;7.244;2022-08-19T14:25:11;99189.53;;;35.01;31.99
9343;BME280;4710;51.382;7.244;2022-08-19T14:27:57;99199.65;;;36.03;31.31
9343;BME280;4710;51.382;7.244;2022-08-19T14:30:35;99200.23;;;36.56;30.03
9343;BME280;4710;51.382;7.244;2022-08-19T14:33:18;99199.68;;;36.15;30.84
9343;BME280;4710;51.382;7.244;2022-08-19T14:35:55;99194.30;;;37.00;29.46
9343;BME280;4710;51.382;7.244;2022-08-19T14:38:33;99191.39;;;36.43;30.17
9343;BME280;4710;51.382;7.244;2022-08-19T14:41:14;99190.49;;;38.52;28.80
9343;BME280;4710;51.382;7.244;2022-08-19T14:43:54;99197.94;;;36.98;29.70
9343;BME280;4710;51.382;7.244;2022-08-19T14:46:31;99204.80;;;35.63;31.49
9343;BME280;4710;51.382;7.244;2022-08-19T14:49:14;99196.97;;;38.54;28.88
9343;BME280;4710;51.382;7.244;2022-08-19T14:51:51;99213.45;;;37.88;29.16
9343;BME280;4710;51.382;7.244;2022-08-19T14:54:31;99206.98;;;38.49;28.72
9343;BME280;4710;51.382;7.244;2022-08-19T14:57:12;99205.12;;;36.92;29.71
9343;BME280;4710;51.382;7.244;2022-08-19T14:59:52;99218.55;;;36.64;29.86